Time;durP1;ratioP1;P1;durP2;ratioP2;P2;SDS_P1;SDS_P2;PMS_P1;PMS_P2;Temp;Humidity;BMP_temperature;BMP_pressure;BME280_temperature;BME280_humidity;BME280_pressure;Samples;Min_cycle;Max_cycle;Signal;HPM_P1;HPM_P2
2023/05/15 04:53:52;;;;;;;12.00;7.13;;;;;;;10.01;96.96;96197.88;2102961;27;20913;-56
2023/05/15 04:54:54;;;;;;;11.13;6.65;;;;;;;10.01;96.88;96187.44;2095655;28;20207;-56
2023/05/15 07:16:27;;;;;;;8.13;3.45;;;;;;;15.70;72.75;96218.75;2089769;28;20589;-56
2023/05/15 07:18:43;;;;;;;6.38;3.30;;;;;;;15.71;72.64;96215.16;2083970;28;20675;-57
2023/05/15 07:19:45;;;;;;;6.95;3.80;;;;;;;15.76;71.69;96214.84;2080172;28;20211;-57
2023/05/15 07:20:47;;;;;;;8.63;3.88;;;;;;;15.66;72.24;96218.13;2080481;28;20762;-57
2023/05/15 07:21:48;;;;;;;5.82;3.53;;;;;;;15.85;72.17;96218.63;2079376;28;20201;-57
2023/05/15 07:22:49;;;;;;;8.30;3.10;;;;;;;15.59;70.82;96218.66;2072186;28;20201;-57
2023/05/15 07:23:57;;;;;;;4.65;3.42;;;;;;;15.61;70.95;96211.50;2071908;28;20189;-57
2023/05/15 07:24:58;;;;;;;4.15;3.22;;;;;;;15.57;70.91;96216.16;2074339;28;20664;-57
2023/05/15 07:25:59;;;;;;;4.88;3.05;;;;;;;15.55;70.64;96212.78;2070282;28;20672;-57
2023/05/15 07:27:01;;;;;;;6.00;3.90;;;;;;;15.53;70.70;96214.69;2070270;28;20232;-57
2023/05/15 07:28:02;;;;;;;5.88;3.33;;;;;;;15.46;70.63;96214.28;2074748;28;20557;-57
2023/05/15 07:29:04;;;;;;;4.20;3.20;;;;;;;15.64;70.55;96208.66;2070888;28;20210;-56
2023/05/15 07:30:06;;;;;;;8.02;3.25;;;;;;;15.80;70.43;96221.56;2070079;28;20194;-57
2023/05/15 07:31:07;;;;;;;4.47;2.95;;;;;;;15.99;70.61;96221.09;2070963;28;20198;-57
2023/05/15 07:32:09;;;;;;;4.80;3.10;;;;;;;16.10;69.66;96221.13;2078686;28;20817;-56
2023/05/15 07:33:10;;;;;;;4.95;3.20;;;;;;;16.04;69.03;96212.84;2081578;28;20575;-56
2023/05/15 07:34:12;;;;;;;6.13;4.10;;;;;;;16.22;69.10;96219.38;2073447;28;20652;-57
2023/05/15 07:35:13;;;;;;;6.05;3.25;;;;;;;16.26;70.47;96209.47;2073186;28;20193;-57
2023/05/15 07:36:15;;;;;;;4.10;3.15;;;;;;;16.28;69.18;96215.47;2072026;28;20193;-58
2023/05/15 07:37:16;;;;;;;5.07;3.10;;;;;;;16.50;68.72;96217.31;2071382;28;20683;-57
2023/05/15 07:38:18;;;;;;;5.07;3.47;;;;;;;16.59;67.93;96223.69;2071941;28;20836;-57
2023/05/15 07:39:19;;;;;;;8.18;2.60;;;;;;;16.29;69.58;96217.13;2070714;28;20197;-57
2023/05/15 07:40:21;;;;;;;4.28;2.70;;;;;;;16.36;68.76;96214.88;2070632;28;20308;-57
2023/05/15 07:41:22;;;;;;;5.25;2.83;;;;;;;16.42;68.44;96217.91;2073420;28;20641;-57
2023/05/15 07:42:24;;;;;;;6.93;3.17;;;;;;;16.47;68.09;96217.56;2072661;28;20222;-57
2023/05/15 07:43:26;;;;;;;4.07;2.88;;;;;;;16.08;68.27;96209.88;2072014;28;20665;-57
2023/05/15 07:44:27;;;;;;;6.00;2.95;;;;;;;16.25;68.87;96213.91;2072447;28;20228;-57
2023/05/15 07:45:29;;;;;;;5.75;2.88;;;;;;;16.53;68.42;96217.09;2073136;28;20197;-57
2023/05/15 07:46:30;;;;;;;9.38;3.30;;;;;;;16.30;66.96;96209.13;2073404;28;20197;-57
2023/05/15 07:48:40;;;;;;;6.30;2.70;;;;;;;16.42;67.65;96212.63;2100001;27;20571;-57
2023/05/15 07:49:42;;;;;;;4.85;3.10;;;;;;;16.37;67.55;96212.13;2097947;28;20627;-57
2023/05/15 07:50:45;;;;;;;8.88;3.22;;;;;;;16.45;67.78;96211.56;2097173;28;20794;-57
2023/05/15 07:53:10;;;;;;;5.22;2.95;;;;;;;16.68;66.28;96217.72;2101413;27;20557;-57
2023/05/15 07:54:12;;;;;;;5.00;2.85;;;;;;;16.83;66.04;96217.50;2090533;28;20231;-57
2023/05/15 07:55:13;;;;;;;3.28;2.15;;;;;;;16.93;65.02;96214.06;2090752;28;20199;-57
2023/05/15 07:56:15;;;;;;;4.85;2.75;;;;;;;17.01;65.19;96216.13;2089942;28;20203;-57
2023/05/15 07:57:17;;;;;;;5.20;3.38;;;;;;;16.99;65.75;96157.38;2073879;28;20217;-57
2023/05/15 07:58:18;;;;;;;8.15;3.50;;;;;;;17.27;64.77;96215.91;2071043;28;20209;-57
2023/05/15 08:00:37;;;;;;;4.50;2.92;;;;;;;17.26;64.35;96209.75;2082886;28;20587;-57
2023/05/15 08:01:39;;;;;;;6.55;2.30;;;;;;;17.20;63.66;96193.59;2079205;28;20205;-57
2023/05/15 08:02:41;;;;;;;4.95;2.88;;;;;;;17.29;63.42;96209.53;2071851;28;20201;-57
2023/05/15 08:03:43;;;;;;;5.00;2.80;;;;;;;17.50;63.40;96208.78;2074795;28;20205;-57
2023/05/15 08:04:44;;;;;;;4.43;2.75;;;;;;;17.61;63.30;96211.41;2074612;28;20201;-57
2023/05/15 08:05:46;;;;;;;5.88;2.42;;;;;;;17.64;64.05;96205.06;2072551;28;20210;-57
2023/05/15 08:06:47;;;;;;;4.03;2.92;;;;;;;17.59;64.42;96212.50;2073226;28;20213;-57
2023/05/15 08:07:49;;;;;;;4.97;2.90;;;;;;;17.78;62.82;96211.88;2075145;28;20201;-57
2023/05/15 08:08:50;;;;;;;6.75;3.05;;;;;;;17.92;63.18;96210.75;2077731;28;20207;-57
2023/05/15 08:09:52;;;;;;;8.43;2.97;;;;;;;18.09;64.03;96204.97;2079645;28;20210;-57
2023/05/15 08:10:53;;;;;;;6.32;3.33;;;;;;;18.05;62.33;96203.50;2070186;28;20251;-57
2023/05/15 08:11:56;;;;;;;3.80;2.78;;;;;;;18.16;63.39;96210.56;2071421;28;20220;-57
2023/05/15 08:12:57;;;;;;;6.13;2.60;;;;;;;18.26;62.08;96200.91;2074416;28;20197;-57
2023/05/15 08:13:59;;;;;;;5.45;3.15;;;;;;;17.82;62.23;96197.44;2072270;28;20248;-58
2023/05/15 08:15:00;;;;;;;5.60;2.58;;;;;;;18.30;62.76;96198.00;2073334;28;20207;-57
2023/05/15 08:16:02;;;;;;;4.05;2.78;;;;;;;18.25;61.93;96199.22;2072689;28;20198;-57
2023/05/15 08:17:04;;;;;;;7.32;2.83;;;;;;;18.48;63.23;96201.78;2074986;28;20225;-57
2023/05/15 08:18:09;;;;;;;4.30;3.17;;;;;;;18.54;61.83;96197.78;2073464;28;20288;-57
2023/05/15 08:19:10;;;;;;;4.55;3.08;;;;;;;18.40;61.11;96196.31;2072998;28;20241;-57
2023/05/15 08:20:12;;;;;;;3.40;2.15;;;;;;;18.33;61.96;96198.59;2070028;28;20304;-57
2023/05/15 08:21:14;;;;;;;6.15;2.72;;;;;;;18.37;61.99;96200.03;2072082;28;20197;-57
2023/05/15 08:22:15;;;;;;;10.93;2.88;;;;;;;18.27;62.77;96207.88;2071042;28;20724;-57
2023/05/15 08:23:17;;;;;;;6.63;3.33;;;;;;;18.33;62.87;96190.66;2071991;28;20208;-57
2023/05/15 08:24:18;;;;;;;5.63;2.42;;;;;;;18.70;60.85;96211.41;2073022;28;20562;-57
2023/05/15 08:25:19;;;;;;;3.55;2.80;;;;;;;18.18;61.57;96205.16;2069784;28;20282;-57
2023/05/15 08:26:21;;;;;;;4.25;2.25;;;;;;;19.00;62.78;96201.84;2070302;28;20207;-57
2023/05/15 08:27:22;;;;;;;7.57;2.80;;;;;;;18.89;61.35;96205.38;2072486;28;20228;-57
2023/05/15 08:28:24;;;;;;;4.60;3.00;;;;;;;19.16;61.10;96205.78;2073968;28;20203;-57
2023/05/15 08:29:26;;;;;;;3.45;2.60;;;;;;;19.37;60.39;96205.75;2074289;28;20207;-57
2023/05/15 08:30:27;;;;;;;4.95;3.00;;;;;;;19.02;61.71;96193.75;2073485;28;20197;-57
2023/05/15 08:31:28;;;;;;;8.23;2.40;;;;;;;18.76;62.00;96194.97;2072737;28;20205;-58
2023/05/15 08:32:30;;;;;;;5.30;2.80;;;;;;;18.52;62.77;96212.94;2073286;28;20895;-57
2023/05/15 08:33:31;;;;;;;7.57;2.72;;;;;;;18.33;61.51;96203.88;2074356;28;20843;-57
2023/05/15 08:34:33;;;;;;;3.70;2.22;;;;;;;17.99;62.57;96203.19;2073268;28;20331;-57
2023/05/15 08:35:34;;;;;;;4.45;2.78;;;;;;;17.64;63.58;96212.97;2072719;28;20257;-57
2023/05/15 08:36:36;;;;;;;4.03;2.60;;;;;;;17.60;63.63;96211.53;2072886;28;20203;-57
2023/05/15 08:37:39;;;;;;;4.70;3.10;;;;;;;18.01;61.82;96209.19;2073156;28;20206;-57
2023/05/15 08:38:41;;;;;;;3.72;2.65;;;;;;;18.41;60.96;96213.81;2073772;28;20609;-57
2023/05/15 08:39:42;;;;;;;4.47;2.90;;;;;;;18.50;59.83;96207.78;2069875;28;20294;-57
2023/05/15 08:40:49;;;;;;;4.47;2.60;;;;;;;18.48;59.06;96214.16;2069942;28;20217;-57
2023/05/15 08:42:19;;;;;;;4.18;2.40;;;;;;;19.01;60.25;96211.44;2073220;28;20211;-57
2023/05/15 08:43:22;;;;;;;4.63;2.67;;;;;;;18.54;59.19;96209.19;2069886;28;20199;-57
2023/05/15 08:44:23;;;;;;;4.32;2.67;;;;;;;19.00;57.71;96208.94;2071585;28;20209;-57
2023/05/15 08:45:25;;;;;;;4.30;2.67;;;;;;;18.66;58.62;96212.59;2074631;28;20926;-57
2023/05/15 08:46:27;;;;;;;4.10;2.30;;;;;;;18.79;58.00;96212.41;2071562;28;20208;-57
2023/05/15 08:47:32;;;;;;;2.90;1.98;;;;;;;19.06;57.53;96211.06;2073336;28;20257;-57
2023/05/15 08:48:36;;;;;;;6.60;2.10;;;;;;;19.51;57.10;96212.50;2071054;28;20240;-57
2023/05/15 08:49:59;;;;;;;4.38;2.50;;;;;;;19.65;57.59;96214.75;2072465;28;20211;-57
2023/05/15 08:51:02;;;;;;;3.28;2.38;;;;;;;19.48;57.86;96208.31;2072035;28;20566;-57
2023/05/15 08:52:04;;;;;;;11.68;2.85;;;;;;;18.89;58.64;96210.66;2073049;28;20263;-57
2023/05/15 08:53:05;;;;;;;6.63;2.50;;;;;;;18.92;59.72;96201.66;2069820;28;20203;-57
2023/05/15 08:54:07;;;;;;;8.13;2.15;;;;;;;18.94;58.88;96205.00;2071343;28;20210;-57
2023/05/15 08:55:09;;;;;;;5.38;2.50;;;;;;;18.96;58.61;96197.78;2081161;28;20845;-57
2023/05/15 08:56:12;;;;;;;4.13;2.40;;;;;;;19.13;58.17;96198.13;2079508;28;20226;-57
2023/05/15 08:57:15;;;;;;;5.32;2.33;;;;;;;18.89;58.10;96207.16;2071242;28;20234;-57
2023/05/15 08:58:17;;;;;;;5.80;3.30;;;;;;;19.04;58.59;96191.81;2070875;28;20214;-57
2023/05/15 08:59:18;;;;;;;3.10;2.28;;;;;;;19.13;59.23;96201.59;2074035;28;20237;-57
2023/05/15 09:00:21;;;;;;;4.43;2.50;;;;;;;19.12;58.48;96199.09;2072240;28;20235;-57
2023/05/15 09:01:23;;;;;;;15.40;2.58;;;;;;;18.90;58.98;96190.38;2073277;28;20198;-56
2023/05/15 09:02:25;;;;;;;5.45;2.90;;;;;;;18.58;58.79;96191.28;2069308;28;20304;-56
2023/05/15 09:03:26;;;;;;;4.25;2.60;;;;;;;18.96;60.25;96196.91;2070504;28;20209;-57
2023/05/15 09:04:28;;;;;;;5.20;2.45;;;;;;;19.27;58.82;96195.13;2074540;28;20725;-57
2023/05/15 09:05:30;;;;;;;5.40;2.60;;;;;;;18.95;59.02;96192.63;2070570;28;20618;-57
2023/05/15 09:06:33;;;;;;;8.13;3.00;;;;;;;19.13;58.25;96192.84;2073219;28;20203;-57
2023/05/15 09:07:36;;;;;;;5.03;2.97;;;;;;;19.45;57.92;96199.78;2073217;28;20251;-56
2023/05/15 09:08:39;;;;;;;4.70;2.88;;;;;;;19.32;56.97;96190.25;2076400;28;20210;-57
2023/05/15 09:09:43;;;;;;;4.50;2.83;;;;;;;19.20;57.93;96189.53;2076497;28;20195;-56
2023/05/15 09:10:45;;;;;;;4.32;2.78;;;;;;;19.54;57.46;96198.97;2071774;28;20247;-56
2023/05/15 09:11:47;;;;;;;4.90;2.50;;;;;;;19.40;57.42;96192.22;2065033;28;20202;-57
2023/05/15 09:12:51;;;;;;;4.75;2.50;;;;;;;19.38;57.28;96189.72;2067501;28;20291;-57
2023/05/15 09:13:52;;;;;;;4.95;2.75;;;;;;;19.32;57.19;96184.97;2068816;28;20208;-57
2023/05/15 09:15:17;;;;;;;4.07;2.53;;;;;;;19.30;56.65;96181.63;2067844;28;20295;-57
2023/05/15 09:16:20;;;;;;;7.22;2.95;;;;;;;19.57;57.55;96186.28;2071185;28;20193;-57
2023/05/15 09:17:21;;;;;;;4.35;2.65;;;;;;;19.49;57.36;96190.59;2072285;28;20225;-57
2023/05/15 09:18:24;;;;;;;8.73;2.83;;;;;;;19.88;57.48;96188.91;2070844;28;20254;-57
2023/05/15 09:19:26;;;;;;;5.15;2.53;;;;;;;19.81;57.47;96190.41;2071768;28;20199;-57
2023/05/15 09:20:31;;;;;;;4.00;2.50;;;;;;;19.61;57.10;96186.88;2068438;28;20212;-57
2023/05/15 09:21:33;;;;;;;4.32;2.65;;;;;;;19.70;56.46;96193.16;2073861;28;20201;-57
2023/05/15 09:22:35;;;;;;;6.35;2.45;;;;;;;19.87;56.90;96189.03;2074848;28;20262;-57
2023/05/15 09:23:37;;;;;;;5.20;3.40;;;;;;;20.33;55.33;96182.22;2066939;28;20832;-57
2023/05/15 09:24:38;;;;;;;5.50;3.15;;;;;;;20.01;55.03;96182.50;2066544;28;20204;-57
2023/05/15 09:25:43;;;;;;;6.70;2.70;;;;;;;19.95;54.35;96177.75;2064338;28;20208;-57
2023/05/15 09:26:46;;;;;;;4.05;2.53;;;;;;;20.18;54.93;96181.81;2066236;28;20837;-57
2023/05/15 09:27:48;;;;;;;4.80;2.55;;;;;;;20.31;54.31;96186.81;2068274;28;20205;-57
2023/05/15 09:28:51;;;;;;;8.98;2.95;;;;;;;20.11;54.96;96188.63;2068120;28;20722;-57
2023/05/15 09:29:55;;;;;;;6.47;2.30;;;;;;;20.39;54.45;96191.41;2067146;28;20292;-57
2023/05/15 09:31:01;;;;;;;4.97;1.92;;;;;;;20.61;52.64;96192.09;2066235;28;20208;-57
2023/05/15 09:32:05;;;;;;;5.30;2.83;;;;;;;20.19;52.50;96183.47;2067036;28;20857;-57
2023/05/15 09:33:08;;;;;;;11.18;2.95;;;;;;;20.41;53.48;96183.34;2066803;28;20619;-57
2023/05/15 09:34:09;;;;;;;5.65;1.95;;;;;;;20.54;54.55;96186.53;2067706;28;20200;-57
2023/05/15 09:35:30;;;;;;;5.20;2.38;;;;;;;20.31;54.33;96176.22;2067679;28;20588;-56
2023/05/15 09:36:32;;;;;;;5.45;2.55;;;;;;;20.13;53.43;96183.22;2063092;28;20188;-57
2023/05/15 09:37:34;;;;;;;3.05;2.03;;;;;;;20.53;53.97;96185.69;2065839;28;20208;-57
2023/05/15 09:38:46;;;;;;;3.00;2.13;;;;;;;20.80;54.87;96180.66;2068069;28;20209;-56
2023/05/15 09:39:48;;;;;;;4.55;2.22;;;;;;;20.97;54.37;96184.38;2067324;28;20197;-56
2023/05/15 09:41:00;;;;;;;8.32;2.28;;;;;;;20.61;52.59;96174.38;2067158;28;20287;-56
2023/05/15 09:42:13;;;;;;;4.00;1.88;;;;;;;20.05;52.68;96179.44;2068083;28;20234;-56
2023/05/15 09:43:15;;;;;;;3.05;2.15;;;;;;;20.50;52.72;96187.78;2068415;28;20726;-57
2023/05/15 09:44:18;;;;;;;3.88;1.75;;;;;;;20.73;52.27;96183.03;2064202;28;20234;-56
2023/05/15 09:45:25;;;;;;;3.03;2.15;;;;;;;21.08;50.61;96175.38;2068204;28;21173;-56
2023/05/15 09:46:28;;;;;;;5.65;2.08;;;;;;;21.25;52.28;96182.56;2067455;28;20205;-56
2023/05/15 09:47:29;;;;;;;4.05;2.35;;;;;;;21.51;51.00;96184.56;2065962;28;20397;-57
2023/05/15 09:48:31;;;;;;;3.58;2.17;;;;;;;21.18;51.92;96177.03;2065928;28;20227;-56
2023/05/15 09:49:34;;;;;;;3.38;2.28;;;;;;;21.26;51.33;96175.47;2067414;28;20824;-56
2023/05/15 09:50:38;;;;;;;3.30;2.00;;;;;;;21.45;50.13;96175.34;2068053;28;20195;-56
2023/05/15 09:51:39;;;;;;;3.33;2.00;;;;;;;20.46;50.10;96168.66;2068337;28;20237;-57
2023/05/15 09:52:41;;;;;;;3.42;2.40;;;;;;;20.64;51.71;96173.25;2068094;28;20211;-57
2023/05/15 09:53:48;;;;;;;4.35;2.00;;;;;;;20.71;51.45;96183.19;2067284;28;20201;-57
2023/05/15 09:54:50;;;;;;;4.25;2.05;;;;;;;21.15;49.91;96171.16;2067808;28;20205;-56
2023/05/15 09:55:52;;;;;;;2.90;2.17;;;;;;;20.80;50.51;96167.41;2067042;28;20206;-56
2023/05/15 09:56:53;;;;;;;3.58;1.90;;;;;;;20.87;50.25;96181.72;2066154;28;20229;-57
2023/05/15 09:58:11;;;;;;;2.90;1.80;;;;;;;20.91;50.72;96164.53;2067624;28;20234;-56
2023/05/15 09:59:16;;;;;;;4.88;2.70;;;;;;;21.41;50.53;96170.47;2068607;28;20200;-56
2023/05/15 10:00:18;;;;;;;5.95;2.58;;;;;;;21.03;51.22;96173.19;2066357;28;20239;-56
2023/05/15 10:01:21;;;;;;;4.78;1.90;;;;;;;21.52;51.42;96173.78;2069694;28;20229;-56
2023/05/15 10:02:26;;;;;;;4.30;2.40;;;;;;;21.91;50.24;96172.72;2065984;28;20219;-57
2023/05/15 10:03:28;;;;;;;3.88;2.25;;;;;;;21.60;48.63;96164.25;2066618;28;20201;-57
2023/05/15 10:04:34;;;;;;;6.10;3.00;;;;;;;21.85;49.84;96168.88;2067728;28;20228;-56
2023/05/15 10:05:36;;;;;;;3.13;2.00;;;;;;;21.67;49.40;96175.97;2067771;28;20205;-57
2023/05/15 10:06:46;;;;;;;4.25;2.30;;;;;;;21.82;49.90;96166.50;2066985;28;20284;-56
2023/05/15 10:07:53;;;;;;;4.45;2.20;;;;;;;21.98;50.22;96176.47;2067873;28;20656;-56
2023/05/15 10:08:55;;;;;;;3.78;2.15;;;;;;;22.23;48.45;96167.88;2067312;28;20728;-57
2023/05/15 10:09:57;;;;;;;4.40;2.42;;;;;;;21.86;48.86;96169.69;2069250;28;20198;-56
2023/05/15 10:11:00;;;;;;;2.85;1.95;;;;;;;21.78;48.57;96167.78;2066094;28;20216;-57
2023/05/15 10:12:03;;;;;;;6.07;2.55;;;;;;;21.00;50.57;96165.50;2063409;28;20315;-56
2023/05/15 10:13:06;;;;;;;4.70;2.13;;;;;;;20.96;51.30;96167.63;2065126;28;20200;-56
2023/05/15 10:14:11;;;;;;;5.05;2.50;;;;;;;20.79;51.23;96166.53;2067449;28;20204;-56
2023/05/15 10:15:13;;;;;;;6.10;2.00;;;;;;;19.81;51.99;96161.25;2066566;28;20714;-57
2023/05/15 10:16:20;;;;;;;3.58;2.25;;;;;;;20.45;51.90;96169.63;2065764;28;20204;-56
2023/05/15 10:17:22;;;;;;;5.57;2.20;;;;;;;20.88;51.24;96156.88;2066648;28;20229;-56
2023/05/15 10:18:25;;;;;;;3.63;1.95;;;;;;;21.19;50.91;96165.44;2066105;28;20525;-56
2023/05/15 10:19:28;;;;;;;2.97;2.25;;;;;;;21.34;50.13;96159.63;2067722;28;20201;-56
2023/05/15 10:20:30;;;;;;;3.03;2.30;;;;;;;21.17;49.87;96155.94;2066926;28;20207;-56
2023/05/15 10:21:37;;;;;;;4.40;2.13;;;;;;;21.43;49.15;96160.56;2066976;28;20208;-56
2023/05/15 10:22:49;;;;;;;4.68;2.75;;;;;;;21.61;49.84;96160.63;2067784;28;20220;-56
2023/05/15 10:23:53;;;;;;;3.58;2.35;;;;;;;21.92;49.20;96160.28;2067293;28;20242;-56
2023/05/15 10:25:32;;;;;;;4.50;2.40;;;;;;;21.50;48.41;96165.13;2068575;28;20984;-56
2023/05/15 10:26:41;;;;;;;3.13;1.83;;;;;;;21.57;48.12;96154.75;2066894;28;20723;-56
2023/05/15 10:27:45;;;;;;;2.67;1.80;;;;;;;21.74;47.31;96144.31;2071183;28;20610;-57
2023/05/15 10:28:48;;;;;;;2.95;1.88;;;;;;;21.60;47.06;96158.94;2071213;28;20199;-56
2023/05/15 10:29:50;;;;;;;2.60;1.60;;;;;;;21.46;47.40;96157.63;2067751;28;20246;-56
2023/05/15 10:30:53;;;;;;;4.18;2.10;;;;;;;21.63;47.95;96153.34;2066823;28;20196;-56
2023/05/15 10:31:57;;;;;;;10.07;2.10;;;;;;;21.98;48.20;96157.84;2066972;28;20304;-56
2023/05/15 10:32:59;;;;;;;2.92;1.63;;;;;;;22.28;47.75;96152.31;2066491;28;20247;-56
2023/05/15 10:34:03;;;;;;;3.20;1.92;;;;;;;22.65;47.88;96145.94;2068463;28;20316;-56
2023/05/15 10:35:05;;;;;;;3.63;2.22;;;;;;;22.35;48.12;96146.22;2067329;28;20514;-57
2023/05/15 10:36:07;;;;;;;3.30;2.40;;;;;;;22.61;48.21;96148.09;2066555;28;20205;-56
2023/05/15 10:37:09;;;;;;;5.65;2.80;;;;;;;22.40;48.47;96140.47;2066066;28;20225;-56
2023/05/15 10:38:12;;;;;;;2.88;2.30;;;;;;;21.92;48.06;96139.03;2067488;28;20677;-56
2023/05/15 10:39:14;;;;;;;3.67;2.53;;;;;;;22.32;48.36;96137.69;2067740;28;20209;-56
2023/05/15 10:40:16;;;;;;;4.15;1.80;;;;;;;22.81;48.48;96130.09;2066832;28;20204;-56
2023/05/15 10:41:20;;;;;;;4.25;2.55;;;;;;;22.99;46.97;96140.69;2066958;28;20227;-56
2023/05/15 10:42:24;;;;;;;3.00;1.90;;;;;;;22.77;46.41;96133.25;2065935;28;20657;-56
2023/05/15 10:43:27;;;;;;;3.42;2.08;;;;;;;22.65;46.57;96129.97;2068063;28;20679;-56
2023/05/15 10:44:29;;;;;;;4.65;1.55;;;;;;;22.55;46.61;96132.78;2069301;28;20205;-56
2023/05/15 10:45:32;;;;;;;3.50;1.90;;;;;;;22.75;46.08;96135.22;2067091;28;20679;-56
2023/05/15 10:46:35;;;;;;;3.85;1.60;;;;;;;22.89;45.29;96126.63;2064934;28;20236;-56
2023/05/15 10:47:38;;;;;;;6.03;2.00;;;;;;;22.73;44.74;96122.06;2066851;28;20418;-56
2023/05/15 10:48:40;;;;;;;3.20;1.65;;;;;;;22.83;46.38;96129.94;2065477;28;20232;-56
2023/05/15 10:49:42;;;;;;;3.60;2.05;;;;;;;22.74;47.05;96122.88;2066664;28;20746;-56
2023/05/15 10:50:43;;;;;;;3.75;1.58;;;;;;;22.56;46.04;96125.59;2067297;28;20207;-56
2023/05/15 10:51:45;;;;;;;6.72;3.08;;;;;;;22.44;46.62;96125.03;2063106;28;20209;-56
2023/05/15 10:52:49;;;;;;;6.47;2.35;;;;;;;21.81;47.26;96124.13;2064244;28;20201;-57
2023/05/15 10:53:51;;;;;;;3.72;2.15;;;;;;;21.43;48.44;96121.53;2066852;28;20606;-56
2023/05/15 10:54:53;;;;;;;5.53;1.65;;;;;;;20.51;47.85;96120.53;2066972;28;20209;-56
2023/05/15 10:55:55;;;;;;;2.35;1.77;;;;;;;20.47;49.02;96124.44;2064894;28;20410;-57
2023/05/15 10:56:56;;;;;;;2.35;1.63;;;;;;;20.36;48.99;96131.56;2066107;28;20273;-56
2023/05/15 10:57:58;;;;;;;4.13;1.65;;;;;;;20.12;49.26;96126.69;2065695;28;20201;-57
2023/05/15 10:59:07;;;;;;;4.85;2.05;;;;;;;20.20;49.69;96120.69;2065926;28;20201;-56
2023/05/15 11:00:21;;;;;;;4.15;1.92;;;;;;;20.54;49.16;96123.72;2065399;28;20773;-56
2023/05/15 11:01:32;;;;;;;4.10;1.60;;;;;;;21.06;48.71;96127.75;2066206;28;20197;-56
2023/05/15 11:02:38;;;;;;;2.67;1.85;;;;;;;21.38;47.26;96118.50;2067549;28;20863;-56
2023/05/15 11:03:41;;;;;;;4.82;1.60;;;;;;;21.66;46.13;96116.69;2066127;28;20260;-56
2023/05/15 11:05:01;;;;;;;3.47;1.55;;;;;;;22.11;45.14;96111.47;2066457;28;20201;-56
2023/05/15 11:06:09;;;;;;;3.15;2.10;;;;;;;22.12;44.60;96113.97;2067241;28;20205;-56
2023/05/15 11:07:15;;;;;;;4.93;1.55;;;;;;;22.10;45.08;96117.75;2063204;28;20253;-56
2023/05/15 11:08:18;;;;;;;3.90;1.70;;;;;;;21.84;46.43;96110.56;2064831;28;20204;-56
2023/05/15 11:09:25;;;;;;;2.58;1.55;;;;;;;21.31;47.91;96105.00;2064723;28;20210;-56
2023/05/15 11:10:28;;;;;;;3.22;1.83;;;;;;;21.33;48.07;96111.00;2067319;28;20780;-57
2023/05/15 11:11:51;;;;;;;4.10;1.70;;;;;;;20.85;49.30;96122.69;2067041;28;20208;-56
2023/05/15 11:12:57;;;;;;;2.55;1.70;;;;;;;21.54;47.59;96116.03;2067184;28;20298;-56
2023/05/15 11:14:06;;;;;;;3.15;1.80;;;;;;;21.89;48.21;96121.56;2066551;28;20201;-56
2023/05/15 11:15:08;;;;;;;2.90;1.80;;;;;;;22.81;46.12;96113.28;2067847;28;20211;-56
2023/05/15 11:16:09;;;;;;;2.63;1.70;;;;;;;22.42;46.35;96111.06;2067470;28;20561;-56
2023/05/15 11:17:15;;;;;;;6.07;2.10;;;;;;;22.00;46.86;96107.19;2068679;28;20281;-56
2023/05/15 11:18:19;;;;;;;9.35;2.03;;;;;;;21.97;47.05;96110.19;2065953;28;20205;-56
2023/05/15 11:19:31;;;;;;;3.00;2.30;;;;;;;22.30;46.30;96102.47;2064336;28;20228;-56
2023/05/15 11:20:36;;;;;;;6.43;2.40;;;;;;;22.42;47.10;96111.06;2066441;28;20536;-56
2023/05/15 11:21:45;;;;;;;3.58;1.90;;;;;;;21.55;48.01;96103.63;2065232;28;20725;-56
2023/05/15 11:22:56;;;;;;;3.13;1.95;;;;;;;21.24;47.92;96111.06;2065290;28;20216;-56
2023/05/15 11:24:05;;;;;;;2.65;1.50;;;;;;;20.93;48.37;96116.66;2063488;28;20679;-57
2023/05/15 11:25:08;;;;;;;7.13;1.90;;;;;;;21.35;48.27;96119.63;2064224;28;20675;-56
2023/05/15 11:26:12;;;;;;;6.43;2.03;;;;;;;21.25;47.58;96104.75;2065766;28;20879;-57
2023/05/15 11:27:20;;;;;;;2.28;1.40;;;;;;;21.87;45.82;96104.09;2065659;28;20718;-56
2023/05/15 11:28:23;;;;;;;3.25;1.77;;;;;;;21.83;45.80;96115.03;2067423;28;20200;-56
2023/05/15 11:29:24;;;;;;;2.08;1.55;;;;;;;22.01;45.12;96106.22;2068146;28;20559;-57
2023/05/15 11:30:45;;;;;;;2.75;1.60;;;;;;;22.89;45.58;96107.19;2063591;28;21105;-56
2023/05/15 11:31:47;;;;;;;3.53;1.55;;;;;;;23.25;44.52;96117.66;2064652;28;20653;-57
2023/05/15 11:33:20;;;;;;;5.63;1.35;;;;;;;23.47;44.83;96108.28;2067247;28;20670;-57
2023/05/15 11:34:34;;;;;;;2.42;1.58;;;;;;;22.50;44.78;96098.66;2064354;28;20258;-56
2023/05/15 11:35:42;;;;;;;2.90;1.90;;;;;;;22.67;44.54;96098.75;2064684;28;20551;-56
2023/05/15 11:36:45;;;;;;;4.53;1.67;;;;;;;23.58;44.79;96101.78;2064716;28;20199;-56
2023/05/15 11:37:57;;;;;;;2.28;1.60;;;;;;;23.98;44.01;96102.88;2067276;28;20204;-56
2023/05/15 11:38:58;;;;;;;2.70;1.60;;;;;;;24.24;43.16;96101.88;2067903;28;20220;-58
2023/05/15 11:40:00;;;;;;;2.78;1.80;;;;;;;23.63;44.22;96100.31;2066231;28;20201;-56
2023/05/15 11:41:02;;;;;;;2.65;1.30;;;;;;;23.22;42.34;96094.03;2067122;28;20245;-56
2023/05/15 11:42:11;;;;;;;5.25;1.77;;;;;;;22.70;43.41;96100.25;2065148;28;20886;-57
2023/05/15 11:43:23;;;;;;;7.28;2.17;;;;;;;22.91;43.16;96094.56;2066127;28;20210;-56
2023/05/15 11:44:25;;;;;;;2.85;1.77;;;;;;;22.81;42.88;96094.66;2066945;28;20199;-56
2023/05/15 11:45:29;;;;;;;5.70;1.73;;;;;;;22.77;42.80;96088.00;2066630;28;20202;-56
2023/05/15 11:46:31;;;;;;;2.75;1.48;;;;;;;23.44;43.56;96097.94;2067478;28;20195;-57
2023/05/15 11:47:33;;;;;;;2.70;1.58;;;;;;;22.96;43.47;96086.94;2067513;28;20428;-56
2023/05/15 11:48:40;;;;;;;6.43;2.08;;;;;;;23.19;44.37;96097.03;2065582;28;20246;-56
2023/05/15 11:49:42;;;;;;;2.78;1.83;;;;;;;24.16;43.38;96088.56;2067540;28;20765;-56
2023/05/15 11:50:44;;;;;;;6.50;1.60;;;;;;;23.93;41.65;96087.41;2065670;28;20204;-57
2023/05/15 11:51:50;;;;;;;3.00;1.67;;;;;;;23.47;40.79;96092.28;2065868;28;20668;-56
2023/05/15 11:52:52;;;;;;;2.25;1.75;;;;;;;23.93;42.88;96090.06;2066633;28;20229;-57
2023/05/15 11:53:54;;;;;;;3.45;1.60;;;;;;;24.20;41.81;96087.22;2066489;28;20208;-56
2023/05/15 11:54:57;;;;;;;3.72;1.40;;;;;;;23.71;42.34;96080.84;2066929;28;20204;-56
2023/05/15 11:55:59;;;;;;;2.55;1.60;;;;;;;23.67;43.46;96089.31;2066925;28;20256;-56
2023/05/15 11:57:01;;;;;;;3.85;1.85;;;;;;;23.91;42.92;96080.53;2065811;28;20564;-56
2023/05/15 11:58:04;;;;;;;2.63;1.55;;;;;;;24.29;43.15;96084.38;2067586;28;20232;-56
2023/05/15 11:59:11;;;;;;;3.75;1.63;;;;;;;23.79;44.14;96085.34;2066221;28;20279;-56
2023/05/15 12:00:13;;;;;;;2.78;1.98;;;;;;;23.20;43.83;96078.22;2065939;28;21037;-56
2023/05/15 12:01:15;;;;;;;2.40;1.92;;;;;;;23.22;44.30;96080.72;2063123;28;20251;-57
2023/05/15 12:02:16;;;;;;;5.30;2.10;;;;;;;23.28;44.11;96094.22;2063280;28;20225;-56
2023/05/15 12:03:26;;;;;;;4.50;1.67;;;;;;;23.53;42.70;96086.31;2065913;28;20211;-57
2023/05/15 12:04:27;;;;;;;6.38;1.90;;;;;;;23.38;43.61;96082.63;2063285;28;20201;-56
2023/05/15 12:05:29;;;;;;;3.10;1.83;;;;;;;23.95;42.97;96082.72;2063985;28;20878;-57
2023/05/15 12:06:31;;;;;;;7.90;1.80;;;;;;;24.71;41.84;96082.53;2065123;28;20250;-56
2023/05/15 12:07:43;;;;;;;3.72;1.80;;;;;;;23.84;42.25;96080.34;2063114;28;20221;-56
2023/05/15 12:08:50;;;;;;;3.20;1.52;;;;;;;22.83;42.94;96093.50;2067095;28;20237;-56
2023/05/15 12:09:51;;;;;;;4.47;1.50;;;;;;;22.70;43.21;96092.28;2063212;28;20232;-58
2023/05/15 12:10:53;;;;;;;1.63;1.17;;;;;;;22.13;43.43;96088.19;2066597;28;20720;-56
2023/05/15 12:11:54;;;;;;;2.67;1.90;;;;;;;21.77;43.88;96093.56;2067458;28;20280;-57
2023/05/15 12:12:57;;;;;;;1.85;1.20;;;;;;;22.18;43.33;96093.88;2067324;28;20233;-56
2023/05/15 12:13:58;;;;;;;2.00;1.33;;;;;;;22.40;42.87;96075.78;2066435;28;20219;-56
2023/05/15 12:15:00;;;;;;;3.17;1.63;;;;;;;22.73;41.50;96075.97;2065118;28;20205;-56
2023/05/15 12:16:03;;;;;;;2.70;1.63;;;;;;;23.59;41.55;96085.66;2065462;28;20207;-56
2023/05/15 12:17:05;;;;;;;2.70;1.60;;;;;;;23.23;40.94;96053.94;2064733;28;20233;-57
2023/05/15 12:18:07;;;;;;;2.33;1.65;;;;;;;22.80;42.28;96077.88;2066305;28;20202;-57
2023/05/15 12:19:09;;;;;;;5.93;1.83;;;;;;;23.35;42.22;96083.78;2067487;28;20294;-56
2023/05/15 12:20:17;;;;;;;4.20;1.73;;;;;;;23.01;43.55;96071.31;2067246;28;20210;-57